sensor_id;sensor_type;location;lat;lon;timestamp;pressure;altitude;pressure_sealevel;temperature;humidity
9249;BME280;4660;41.768;26.198;2023-04-07T00:02:04;100685.47;;;7.06;100.00
9249;BME280;4660;41.768;26.198;2023-04-07T00:04:30;100705.53;;;7.12;100.00
9249;BME280;4660;41.768;26.198;2023-04-07T00:06:55;100718.69;;;7.15;100.00
9249;BME280;4660;41.768;26.198;2023-04-07T00:09:21;100699.22;;;7.02;100.00
9249;BME280;4660;41.768;26.198;2023-04-07T00:11:47;100698.44;;;6.88;100.00
9249;BME280;4660;41.768;26.198;2023-04-07T00:14:13;100720.59;;;7.02;100.00
9249;BME280;4660;41.768;26.198;2023-04-07T00:16:38;100706.00;;;6.95;100.00
9249;BME280;4660;41.768;26.198;2023-04-07T00:19:05;100721.09;;;7.18;100.00
9249;BME280;4660;41.768;26.198;2023-04-07T00:21:30;100720.34;;;7.05;100.00
9249;BME280;4660;41.768;26.198;2023-04-07T00:23:56;100723.75;;;7.07;100.00
9249;BME280;4660;41.768;26.198;2023-04-07T00:26:22;100731.06;;;7.05;100.00
9249;BME280;4660;41.768;26.198;2023-04-07T00:28:47;100728.50;;;7.03;100.00
9249;BME280;4660;41.768;26.198;2023-04-07T00:31:13;100729.59;;;7.01;100.00
9249;BME280;4660;41.768;26.198;2023-04-07T00:33:38;100719.84;;;6.88;100.00
9249;BME280;4660;41.768;26.198;2023-04-07T00:36:04;100723.97;;;6.93;100.00
9249;BME280;4660;41.768;26.198;2023-04-07T00:38:30;100721.19;;;6.94;100.00
9249;BME280;4660;41.768;26.198;2023-04-07T00:40:57;100727.13;;;6.86;100.00
9249;BME280;4660;41.768;26.198;2023-04-07T00:43:23;100728.59;;;6.90;100.00
9249;BME280;4660;41.768;26.198;2023-04-07T00:45:50;100729.09;;;6.96;100.00
9249;BME280;4660;41.768;26.198;2023-04-07T00:48:16;100729.59;;;7.01;100.00
9249;BME280;4660;41.768;26.198;2023-04-07T00:50:44;100735.69;;;7.03;100.00
9249;BME280;4660;41.768;26.198;2023-04-07T00:53:11;100715.06;;;6.81;100.00
9249;BME280;4660;41.768;26.198;2023-04-07T00:55:36;100737.34;;;6.93;100.00
9249;BME280;4660;41.768;26.198;2023-04-07T00:58:02;100732.97;;;6.92;100.00
9249;BME280;4660;41.768;26.198;2023-04-07T01:00:31;100735.25;;;6.85;100.00
9249;BME280;4660;41.768;26.198;2023-04-07T01:03:08;100729.91;;;6.85;100.00
9249;BME280;4660;41.768;26.198;2023-04-07T01:05:41;100744.50;;;6.81;100.00
9249;BME280;4660;41.768;26.198;2023-04-07T01:08:20;100738.16;;;6.82;100.00
9249;BME280;4660;41.768;26.198;2023-04-07T01:10:57;100740.47;;;6.75;100.00
9249;BME280;4660;41.768;26.198;2023-04-07T01:13:41;100738.28;;;6.80;100.00
9249;BME280;4660;41.768;26.198;2023-04-07T01:16:12;100726.28;;;6.86;100.00
9249;BME280;4660;41.768;26.198;2023-04-07T01:18:41;100742.69;;;6.93;100.00
9249;BME280;4660;41.768;26.198;2023-04-07T01:21:13;100722.38;;;6.79;100.00
9249;BME280;4660;41.768;26.198;2023-04-07T01:26:30;100743.63;;;6.80;100.00
9249;BME280;4660;41.768;26.198;2023-04-07T01:31:38;100738.75;;;6.74;100.00
9249;BME280;4660;41.768;26.198;2023-04-07T01:34:06;100741.75;;;6.70;100.00
9249;BME280;4660;41.768;26.198;2023-04-07T01:36:33;100732.56;;;6.74;100.00
9249;BME280;4660;41.768;26.198;2023-04-07T01:39:00;100732.81;;;6.82;100.00
9249;BME280;4660;41.768;26.198;2023-04-07T01:41:26;100739.03;;;6.82;100.00
9249;BME280;4660;41.768;26.198;2023-04-07T01:43:53;100742.94;;;6.89;100.00
9249;BME280;4660;41.768;26.198;2023-04-07T01:46:19;100749.84;;;6.81;100.00
9249;BME280;4660;41.768;26.198;2023-04-07T01:48:46;100738.97;;;6.71;100.00
9249;BME280;4660;41.768;26.198;2023-04-07T01:51:13;100732.16;;;6.67;100.00
9249;BME280;4660;41.768;26.198;2023-04-07T01:53:44;100727.91;;;6.65;100.00
9249;BME280;4660;41.768;26.198;2023-04-07T01:56:10;100743.00;;;6.77;100.00
9249;BME280;4660;41.768;26.198;2023-04-07T01:58:36;100729.63;;;6.77;100.00
9249;BME280;4660;41.768;26.198;2023-04-07T02:01:02;100742.78;;;6.80;100.00
9249;BME280;4660;41.768;26.198;2023-04-07T02:06:18;100743.41;;;6.83;100.00
9249;BME280;4660;41.768;26.198;2023-04-07T02:08:52;100755.34;;;6.90;100.00
9249;BME280;4660;41.768;26.198;2023-04-07T02:11:20;100755.84;;;7.07;100.00
9249;BME280;4660;41.768;26.198;2023-04-07T02:13:46;100749.06;;;7.03;100.00
9249;BME280;4660;41.768;26.198;2023-04-07T02:16:12;100760.88;;;7.11;100.00
9249;BME280;4660;41.768;26.198;2023-04-07T02:18:39;100752.69;;;7.02;100.00
9249;BME280;4660;41.768;26.198;2023-04-07T02:21:06;100758.44;;;7.08;100.00
9249;BME280;4660;41.768;26.198;2023-04-07T02:23:34;100761.69;;;7.01;100.00
9249;BME280;4660;41.768;26.198;2023-04-07T02:26:00;100766.81;;;7.04;100.00
9249;BME280;4660;41.768;26.198;2023-04-07T02:28:25;100767.53;;;7.06;100.00
9249;BME280;4660;41.768;26.198;2023-04-07T02:30:51;100755.97;;;6.94;100.00
9249;BME280;4660;41.768;26.198;2023-04-07T02:33:16;100758.13;;;6.89;100.00
9249;BME280;4660;41.768;26.198;2023-04-07T02:35:42;100777.25;;;6.96;100.00
9249;BME280;4660;41.768;26.198;2023-04-07T02:38:08;100766.28;;;6.99;100.00
9249;BME280;4660;41.768;26.198;2023-04-07T02:40:33;100771.44;;;7.02;100.00
9249;BME280;4660;41.768;26.198;2023-04-07T02:43:01;100769.44;;;6.93;100.00
9249;BME280;4660;41.768;26.198;2023-04-07T02:45:26;100769.94;;;6.98;100.00
9249;BME280;4660;41.768;26.198;2023-04-07T02:47:52;100769.47;;;7.04;100.00
9249;BME280;4660;41.768;26.198;2023-04-07T02:50:18;100765.09;;;7.03;100.00
9249;BME280;4660;41.768;26.198;2023-04-07T02:52:44;100781.47;;;7.33;100.00
9249;BME280;4660;41.768;26.198;2023-04-07T02:55:09;100789.41;;;7.46;100.00
9249;BME280;4660;41.768;26.198;2023-04-07T02:57:35;100775.72;;;7.27;100.00
9249;BME280;4660;41.768;26.198;2023-04-07T03:00:01;100790.22;;;7.24;100.00
9249;BME280;4660;41.768;26.198;2023-04-07T03:02:26;100794.63;;;7.48;100.00
9249;BME280;4660;41.768;26.198;2023-04-07T03:04:52;100791.25;;;7.68;100.00
9249;BME280;4660;41.768;26.198;2023-04-07T03:07:17;100793.66;;;7.60;100.00
9249;BME280;4660;41.768;26.198;2023-04-07T03:09:43;100779.44;;;7.59;100.00
9249;BME280;4660;41.768;26.198;2023-04-07T03:12:09;100795.38;;;7.61;100.00
9249;BME280;4660;41.768;26.198;2023-04-07T03:14:35;100790.97;;;7.37;100.00
9249;BME280;4660;41.768;26.198;2023-04-07T03:17:00;100797.72;;;7.19;100.00
9249;BME280;4660;41.768;26.198;2023-04-07T03:19:26;100792.34;;;7.08;100.00
9249;BME280;4660;41.768;26.198;2023-04-07T03:21:51;100790.69;;;7.18;100.00
9249;BME280;4660;41.768;26.198;2023-04-07T03:24:17;100791.66;;;7.28;100.00
9249;BME280;4660;41.768;26.198;2023-04-07T03:26:42;100783.75;;;7.27;100.00
9249;BME280;4660;41.768;26.198;2023-04-07T03:29:08;100804.47;;;7.36;100.00
9249;BME280;4660;41.768;26.198;2023-04-07T03:31:33;100798.84;;;7.28;100.00
9249;BME280;4660;41.768;26.198;2023-04-07T03:33:59;100800.22;;;7.44;100.00
9249;BME280;4660;41.768;26.198;2023-04-07T03:36:24;100787.81;;;7.43;100.00
9249;BME280;4660;41.768;26.198;2023-04-07T03:38:52;100766.84;;;7.26;100.00
9249;BME280;4660;41.768;26.198;2023-04-07T03:41:17;100802.91;;;7.44;100.00
9249;BME280;4660;41.768;26.198;2023-04-07T03:43:43;100804.56;;;7.23;100.00
9249;BME280;4660;41.768;26.198;2023-04-07T03:46:08;100799.16;;;7.12;100.00
9249;BME280;4660;41.768;26.198;2023-04-07T03:48:34;100805.03;;;7.17;100.00
9249;BME280;4660;41.768;26.198;2023-04-07T03:51:00;100812.84;;;7.31;100.00
9249;BME280;4660;41.768;26.198;2023-04-07T03:53:25;100808.09;;;7.24;100.00
9249;BME280;4660;41.768;26.198;2023-04-07T03:55:51;100758.50;;;6.96;100.00
9249;BME280;4660;41.768;26.198;2023-04-07T03:58:17;100814.94;;;7.39;100.00
9249;BME280;4660;41.768;26.198;2023-04-07T04:00:43;100806.94;;;7.50;100.00
9249;BME280;4660;41.768;26.198;2023-04-07T04:03:09;100815.56;;;7.54;100.00
9249;BME280;4660;41.768;26.198;2023-04-07T04:05:35;100814.59;;;7.43;100.00
9249;BME280;4660;41.768;26.198;2023-04-07T04:08:01;100812.63;;;7.45;100.00
9249;BME280;4660;41.768;26.198;2023-04-07T04:10:27;100816.75;;;7.50;100.00
9249;BME280;4660;41.768;26.198;2023-04-07T04:12:53;100834.78;;;7.48;100.00
9249;BME280;4660;41.768;26.198;2023-04-07T04:15:18;100827.59;;;7.37;100.00
9249;BME280;4660;41.768;26.198;2023-04-07T04:17:44;100818.19;;;7.31;100.00
9249;BME280;4660;41.768;26.198;2023-04-07T04:20:10;100833.06;;;7.47;100.00
9249;BME280;4660;41.768;26.198;2023-04-07T04:22:35;100834.19;;;7.44;100.00
9249;BME280;4660;41.768;26.198;2023-04-07T04:25:01;100834.66;;;7.49;100.00
9249;BME280;4660;41.768;26.198;2023-04-07T04:27:27;100843.06;;;7.44;100.00
9249;BME280;4660;41.768;26.198;2023-04-07T04:29:53;100826.38;;;7.41;100.00
9249;BME280;4660;41.768;26.198;2023-04-07T04:32:19;100858.44;;;7.65;100.00
9249;BME280;4660;41.768;26.198;2023-04-07T04:34:45;100836.03;;;7.66;100.00
9249;BME280;4660;41.768;26.198;2023-04-07T04:37:11;100827.25;;;7.53;100.00
9249;BME280;4660;41.768;26.198;2023-04-07T04:39:36;100833.66;;;7.39;100.00
9249;BME280;4660;41.768;26.198;2023-04-07T04:42:02;100853.31;;;7.62;100.00
9249;BME280;4660;41.768;26.198;2023-04-07T04:44:28;100850.13;;;7.57;100.00
9249;BME280;4660;41.768;26.198;2023-04-07T04:46:55;100848.78;;;7.62;100.00
9249;BME280;4660;41.768;26.198;2023-04-07T04:49:21;100855.34;;;7.47;100.00
9249;BME280;4660;41.768;26.198;2023-04-07T04:51:47;100856.69;;;7.64;100.00
9249;BME280;4660;41.768;26.198;2023-04-07T04:54:12;100838.34;;;7.59;100.00
9249;BME280;4660;41.768;26.198;2023-04-07T04:56:38;100856.81;;;7.62;100.00
9249;BME280;4660;41.768;26.198;2023-04-07T04:59:04;100846.28;;;7.72;100.00
9249;BME280;4660;41.768;26.198;2023-04-07T05:01:29;100863.81;;;8.10;100.00
9249;BME280;4660;41.768;26.198;2023-04-07T05:03:55;100847.72;;;7.76;100.00
9249;BME280;4660;41.768;26.198;2023-04-07T05:06:21;100857.47;;;7.77;100.00
9249;BME280;4660;41.768;26.198;2023-04-07T05:08:47;100867.22;;;7.89;100.00
9249;BME280;4660;41.768;26.198;2023-04-07T05:11:12;100851.38;;;7.75;100.00
9249;BME280;4660;41.768;26.198;2023-04-07T05:13:38;100871.25;;;7.95;100.00
9249;BME280;4660;41.768;26.198;2023-04-07T05:16:06;100870.78;;;8.01;100.00
9249;BME280;4660;41.768;26.198;2023-04-07T05:18:31;100847.38;;;7.92;100.00
9249;BME280;4660;41.768;26.198;2023-04-07T05:20:57;100860.88;;;7.90;100.00
9249;BME280;4660;41.768;26.198;2023-04-07T05:23:23;100858.22;;;8.13;100.00
9249;BME280;4660;41.768;26.198;2023-04-07T05:25:49;100881.59;;;8.55;100.00
9249;BME280;4660;41.768;26.198;2023-04-07T05:28:14;100871.13;;;8.52;100.00
9249;BME280;4660;41.768;26.198;2023-04-07T05:30:40;100880.38;;;8.48;100.00
9249;BME280;4660;41.768;26.198;2023-04-07T05:33:08;100870.16;;;8.09;100.00
9249;BME280;4660;41.768;26.198;2023-04-07T05:35:37;100885.25;;;8.32;100.00
9249;BME280;4660;41.768;26.198;2023-04-07T05:38:06;100874.16;;;8.14;100.00
9249;BME280;4660;41.768;26.198;2023-04-07T05:40:32;100873.81;;;8.19;100.00
9249;BME280;4660;41.768;26.198;2023-04-07T05:42:58;100888.94;;;8.53;100.00
9249;BME280;4660;41.768;26.198;2023-04-07T05:45:23;100887.22;;;8.52;100.00
9249;BME280;4660;41.768;26.198;2023-04-07T05:47:49;100874.81;;;8.40;100.00
9249;BME280;4660;41.768;26.198;2023-04-07T05:50:16;100888.78;;;8.66;100.00
9249;BME280;4660;41.768;26.198;2023-04-07T05:52:41;100888.56;;;8.47;100.00
9249;BME280;4660;41.768;26.198;2023-04-07T05:55:07;100875.63;;;8.30;99.81
9249;BME280;4660;41.768;26.198;2023-04-07T05:57:33;100892.34;;;8.44;98.71
9249;BME280;4660;41.768;26.198;2023-04-07T05:59:59;100883.56;;;8.31;99.90
9249;BME280;4660;41.768;26.198;2023-04-07T06:02:27;100906.47;;;8.35;97.24
9249;BME280;4660;41.768;26.198;2023-04-07T06:04:53;100911.09;;;8.33;100.00
9249;BME280;4660;41.768;26.198;2023-04-07T06:07:19;100864.06;;;8.18;100.00
9249;BME280;4660;41.768;26.198;2023-04-07T06:09:44;100913.69;;;8.46;98.29
9249;BME280;4660;41.768;26.198;2023-04-07T06:12:10;100898.22;;;8.38;95.91
9249;BME280;4660;41.768;26.198;2023-04-07T06:14:37;100911.47;;;8.40;95.11
9249;BME280;4660;41.768;26.198;2023-04-07T06:17:03;100917.19;;;8.69;94.71
9249;BME280;4660;41.768;26.198;2023-04-07T06:19:29;100925.19;;;8.91;91.72
9249;BME280;4660;41.768;26.198;2023-04-07T06:21:56;100925.69;;;8.85;92.18
9249;BME280;4660;41.768;26.198;2023-04-07T06:24:34;100910.59;;;8.73;92.37
9249;BME280;4660;41.768;26.198;2023-04-07T06:27:03;100926.53;;;8.86;92.66
9249;BME280;4660;41.768;26.198;2023-04-07T06:29:29;100880.66;;;8.45;90.99
9249;BME280;4660;41.768;26.198;2023-04-07T06:31:55;100912.06;;;8.54;91.96
9249;BME280;4660;41.768;26.198;2023-04-07T06:34:21;100890.00;;;8.28;93.76
9249;BME280;4660;41.768;26.198;2023-04-07T06:36:47;100918.31;;;8.44;96.42
9249;BME280;4660;41.768;26.198;2023-04-07T06:39:13;100934.75;;;8.62;96.70
9249;BME280;4660;41.768;26.198;2023-04-07T06:41:42;100913.06;;;8.53;96.31
9249;BME280;4660;41.768;26.198;2023-04-07T06:44:09;100935.75;;;9.04;97.21
9249;BME280;4660;41.768;26.198;2023-04-07T06:46:40;100897.63;;;9.00;93.73
9249;BME280;4660;41.768;26.198;2023-04-07T06:49:09;100909.53;;;9.07;90.39
9249;BME280;4660;41.768;26.198;2023-04-07T06:51:47;100931.88;;;8.97;89.62
9249;BME280;4660;41.768;26.198;2023-04-07T06:54:12;100917.41;;;8.77;88.09
9249;BME280;4660;41.768;26.198;2023-04-07T06:56:40;100963.72;;;9.01;87.14
9249;BME280;4660;41.768;26.198;2023-04-07T06:59:06;100964.72;;;8.89;86.98
9249;BME280;4660;41.768;26.198;2023-04-07T07:01:32;100944.94;;;8.90;86.96
9249;BME280;4660;41.768;26.198;2023-04-07T07:03:59;100959.94;;;8.93;88.06
9249;BME280;4660;41.768;26.198;2023-04-07T07:06:26;100940.28;;;8.92;86.87
9249;BME280;4660;41.768;26.198;2023-04-07T07:08:52;100954.88;;;9.22;82.25
9249;BME280;4660;41.768;26.198;2023-04-07T07:11:18;100967.75;;;9.39;77.80
9249;BME280;4660;41.768;26.198;2023-04-07T07:14:07;100940.63;;;9.10;79.00
9249;BME280;4660;41.768;26.198;2023-04-07T07:16:35;100927.41;;;8.86;77.62
9249;BME280;4660;41.768;26.198;2023-04-07T07:19:02;100976.97;;;9.14;78.50
9249;BME280;4660;41.768;26.198;2023-04-07T07:21:29;100970.66;;;9.04;77.23
9249;BME280;4660;41.768;26.198;2023-04-07T07:23:57;100984.16;;;9.14;79.28
9249;BME280;4660;41.768;26.198;2023-04-07T07:26:24;100980.53;;;9.15;80.44
9249;BME280;4660;41.768;26.198;2023-04-07T07:28:51;100989.53;;;9.14;80.97
9249;BME280;4660;41.768;26.198;2023-04-07T07:31:17;100973.69;;;8.99;80.65
9249;BME280;4660;41.768;26.198;2023-04-07T07:33:43;100992.47;;;9.22;77.65
9249;BME280;4660;41.768;26.198;2023-04-07T07:36:14;100995.75;;;9.14;76.88
9249;BME280;4660;41.768;26.198;2023-04-07T07:38:45;100994.00;;;9.35;77.76
9249;BME280;4660;41.768;26.198;2023-04-07T07:41:11;100985.91;;;9.47;77.03
9249;BME280;4660;41.768;26.198;2023-04-07T07:43:37;100982.59;;;9.54;75.17
9249;BME280;4660;41.768;26.198;2023-04-07T07:46:04;100960.63;;;9.17;74.13
9249;BME280;4660;41.768;26.198;2023-04-07T07:48:35;100990.81;;;9.42;76.13
9249;BME280;4660;41.768;26.198;2023-04-07T07:51:05;100981.19;;;9.28;76.34
9249;BME280;4660;41.768;26.198;2023-04-07T07:53:31;100980.47;;;9.37;77.44
9249;BME280;4660;41.768;26.198;2023-04-07T07:55:58;100991.63;;;9.53;77.26
9249;BME280;4660;41.768;26.198;2023-04-07T07:58:24;100968.03;;;9.25;77.61
9249;BME280;4660;41.768;26.198;2023-04-07T08:00:50;100990.94;;;9.40;76.01
9249;BME280;4660;41.768;26.198;2023-04-07T08:05:52;100923.09;;;9.38;74.16
9249;BME280;4660;41.768;26.198;2023-04-07T08:08:19;100924.78;;;9.39;74.08
9249;BME280;4660;41.768;26.198;2023-04-07T08:10:46;100977.03;;;9.67;74.84
9249;BME280;4660;41.768;26.198;2023-04-07T08:13:18;100934.25;;;9.22;74.43
9249;BME280;4660;41.768;26.198;2023-04-07T08:15:45;100934.84;;;9.26;74.33
9249;BME280;4660;41.768;26.198;2023-04-07T08:18:11;100887.13;;;8.97;73.50
9249;BME280;4660;41.768;26.198;2023-04-07T08:20:38;100954.59;;;9.36;73.25
9249;BME280;4660;41.768;26.198;2023-04-07T08:28:15;100875.66;;;8.52;74.65
9249;BME280;4660;41.768;26.198;2023-04-07T08:31:09;100948.97;;;8.96;74.80
9249;BME280;4660;41.768;26.198;2023-04-07T08:33:38;101028.47;;;9.62;74.07
9249;BME280;4660;41.768;26.198;2023-04-07T08:36:07;100941.06;;;9.26;73.10
9249;BME280;4660;41.768;26.198;2023-04-07T08:38:38;101022.34;;;9.92;72.08
9249;BME280;4660;41.768;26.198;2023-04-07T08:41:12;100925.78;;;9.38;73.20
9249;BME280;4660;41.768;26.198;2023-04-07T08:43:44;100938.50;;;9.36;73.49
9249;BME280;4660;41.768;26.198;2023-04-07T08:46:14;100901.81;;;9.14;71.98
9249;BME280;4660;41.768;26.198;2023-04-07T08:48:50;100961.41;;;9.40;72.93
9249;BME280;4660;41.768;26.198;2023-04-07T09:20:11;100880.31;;;9.88;63.55
9249;BME280;4660;41.768;26.198;2023-04-07T09:36:42;100851.16;;;10.14;63.46
9249;BME280;4660;41.768;26.198;2023-04-07T09:58:22;100859.00;;;11.64;57.94
9249;BME280;4660;41.768;26.198;2023-04-07T10:07:21;100916.84;;;11.98;53.61
9249;BME280;4660;41.768;26.198;2023-04-07T11:25:20;100972.50;;;13.38;56.96
9249;BME280;4660;41.768;26.198;2023-04-07T11:56:46;100870.78;;;14.33;63.35
9249;BME280;4660;41.768;26.198;2023-04-07T12:10:35;100868.09;;;14.07;65.05
9249;BME280;4660;41.768;26.198;2023-04-07T12:14:27;100885.41;;;14.48;64.32
9249;BME280;4660;41.768;26.198;2023-04-07T15:53:18;100837.16;;;16.78;69.08
9249;BME280;4660;41.768;26.198;2023-04-07T15:58:42;100899.66;;;16.78;70.09
9249;BME280;4660;41.768;26.198;2023-04-07T16:01:13;100836.00;;;16.34;69.75
9249;BME280;4660;41.768;26.198;2023-04-07T16:04:01;100844.06;;;16.11;70.53
9249;BME280;4660;41.768;26.198;2023-04-07T16:07:00;100811.84;;;16.08;71.43
9249;BME280;4660;41.768;26.198;2023-04-07T17:24:30;100978.72;;;12.09;100.00
9249;BME280;4660;41.768;26.198;2023-04-07T17:26:57;100881.72;;;11.61;100.00
9249;BME280;4660;41.768;26.198;2023-04-07T17:29:54;100981.81;;;12.24;100.00
9249;BME280;4660;41.768;26.198;2023-04-07T18:40:30;101015.41;;;10.53;100.00
9249;BME280;4660;41.768;26.198;2023-04-07T18:44:00;101064.81;;;10.72;100.00
9249;BME280;4660;41.768;26.198;2023-04-07T19:02:29;101078.78;;;10.87;100.00
9249;BME280;4660;41.768;26.198;2023-04-07T19:42:31;101122.53;;;10.89;100.00
9249;BME280;4660;41.768;26.198;2023-04-07T20:27:48;101185.59;;;10.87;100.00
9249;BME280;4660;41.768;26.198;2023-04-07T21:03:12;101188.53;;;10.19;100.00
9249;BME280;4660;41.768;26.198;2023-04-07T21:05:39;101165.09;;;10.22;100.00
9249;BME280;4660;41.768;26.198;2023-04-07T21:08:05;101167.38;;;10.37;100.00
9249;BME280;4660;41.768;26.198;2023-04-07T21:10:30;101182.25;;;10.41;100.00
9249;BME280;4660;41.768;26.198;2023-04-07T21:12:56;101164.72;;;10.26;100.00
9249;BME280;4660;41.768;26.198;2023-04-07T21:15:21;101187.84;;;10.29;100.00
9249;BME280;4660;41.768;26.198;2023-04-07T21:17:47;101186.84;;;10.18;100.00
9249;BME280;4660;41.768;26.198;2023-04-07T21:20:12;101195.53;;;10.11;100.00
9249;BME280;4660;41.768;26.198;2023-04-07T21:22:38;101195.88;;;10.17;100.00
9249;BME280;4660;41.768;26.198;2023-04-07T21:25:04;101200.06;;;10.10;100.00
9249;BME280;4660;41.768;26.198;2023-04-07T21:27:32;101205.66;;;10.30;100.00
9249;BME280;4660;41.768;26.198;2023-04-07T21:29:58;101208.59;;;10.27;100.00
9249;BME280;4660;41.768;26.198;2023-04-07T21:32:24;101200.56;;;10.15;100.00
9249;BME280;4660;41.768;26.198;2023-04-07T21:34:53;101200.97;;;9.88;100.00
9249;BME280;4660;41.768;26.198;2023-04-07T21:37:21;101198.91;;;9.81;100.00
9249;BME280;4660;41.768;26.198;2023-04-07T21:39:51;101201.09;;;9.76;100.00
9249;BME280;4660;41.768;26.198;2023-04-07T21:42:20;101209.88;;;9.78;100.00
9249;BME280;4660;41.768;26.198;2023-04-07T21:44:46;101207.09;;;9.79;100.00
9249;BME280;4660;41.768;26.198;2023-04-07T21:47:11;101216.16;;;9.67;100.00
9249;BME280;4660;41.768;26.198;2023-04-07T21:49:37;101218.09;;;9.76;100.00
9249;BME280;4660;41.768;26.198;2023-04-07T21:52:04;101205.50;;;9.88;100.00
9249;BME280;4660;41.768;26.198;2023-04-07T21:54:30;101220.63;;;10.00;100.00
9249;BME280;4660;41.768;26.198;2023-04-07T21:56:55;101222.44;;;10.00;100.00
9249;BME280;4660;41.768;26.198;2023-04-07T21:59:21;101223.69;;;9.84;100.00
9249;BME280;4660;41.768;26.198;2023-04-07T22:01:47;101234.47;;;9.73;100.00
9249;BME280;4660;41.768;26.198;2023-04-07T22:04:12;101236.78;;;9.67;100.00
9249;BME280;4660;41.768;26.198;2023-04-07T22:06:38;101215.78;;;9.49;100.00
9249;BME280;4660;41.768;26.198;2023-04-07T22:09:05;101221.13;;;9.49;100.00
9249;BME280;4660;41.768;26.198;2023-04-07T22:11:31;101234.09;;;9.55;100.00
9249;BME280;4660;41.768;26.198;2023-04-07T22:13:57;101244.34;;;9.73;100.00
9249;BME280;4660;41.768;26.198;2023-04-07T22:16:23;101215.41;;;9.65;100.00
9249;BME280;4660;41.768;26.198;2023-04-07T22:18:49;101230.31;;;9.80;100.00
9249;BME280;4660;41.768;26.198;2023-04-07T22:21:15;101237.38;;;9.70;100.00
9249;BME280;4660;41.768;26.198;2023-04-07T22:23:40;101238.09;;;9.50;100.00
9249;BME280;4660;41.768;26.198;2023-04-07T22:26:06;101227.50;;;9.37;100.00
9249;BME280;4660;41.768;26.198;2023-04-07T22:28:31;101250.06;;;9.34;100.00
9249;BME280;4660;41.768;26.198;2023-04-07T22:30:57;101244.81;;;9.22;100.00
9249;BME280;4660;41.768;26.198;2023-04-07T22:33:23;101239.09;;;9.37;100.00
9249;BME280;4660;41.768;26.198;2023-04-07T22:35:49;101228.84;;;9.31;100.00
9249;BME280;4660;41.768;26.198;2023-04-07T22:38:15;101249.97;;;9.47;100.00
9249;BME280;4660;41.768;26.198;2023-04-07T22:40:42;101241.66;;;9.61;100.00
9249;BME280;4660;41.768;26.198;2023-04-07T22:43:08;101248.25;;;9.69;100.00
9249;BME280;4660;41.768;26.198;2023-04-07T22:45:33;101221.16;;;9.38;100.00
9249;BME280;4660;41.768;26.198;2023-04-07T22:48:00;101249.34;;;9.32;100.00
9249;BME280;4660;41.768;26.198;2023-04-07T22:50:26;101249.53;;;9.07;100.00
9249;BME280;4660;41.768;26.198;2023-04-07T22:52:51;101250.28;;;9.09;100.00
9249;BME280;4660;41.768;26.198;2023-04-07T22:55:17;101256.28;;;9.24;100.00
9249;BME280;4660;41.768;26.198;2023-04-07T22:57:43;101262.09;;;9.06;100.00
9249;BME280;4660;41.768;26.198;2023-04-07T23:00:10;101251.59;;;9.03;100.00
9249;BME280;4660;41.768;26.198;2023-04-07T23:02:36;101260.44;;;9.28;100.00
9249;BME280;4660;41.768;26.198;2023-04-07T23:05:02;101255.59;;;9.44;100.00
9249;BME280;4660;41.768;26.198;2023-04-07T23:07:29;101253.88;;;9.65;100.00
9249;BME280;4660;41.768;26.198;2023-04-07T23:09:54;101262.88;;;9.42;100.00
9249;BME280;4660;41.768;26.198;2023-04-07T23:12:20;101262.28;;;9.38;100.00
9249;BME280;4660;41.768;26.198;2023-04-07T23:14:45;101223.78;;;8.93;100.00
9249;BME280;4660;41.768;26.198;2023-04-07T23:17:11;101262.63;;;9.23;100.00
9249;BME280;4660;41.768;26.198;2023-04-07T23:19:37;101253.44;;;9.03;100.00
9249;BME280;4660;41.768;26.198;2023-04-07T23:22:03;101240.66;;;9.18;100.00
9249;BME280;4660;41.768;26.198;2023-04-07T23:24:28;101247.22;;;9.14;100.00
9249;BME280;4660;41.768;26.198;2023-04-07T23:26:53;101207.69;;;8.93;100.00
9249;BME280;4660;41.768;26.198;2023-04-07T23:29:20;101246.03;;;9.40;100.00
9249;BME280;4660;41.768;26.198;2023-04-07T23:31:45;101222.72;;;9.41;100.00
9249;BME280;4660;41.768;26.198;2023-04-07T23:34:11;101246.06;;;9.29;100.00
9249;BME280;4660;41.768;26.198;2023-04-07T23:36:36;101247.00;;;9.28;100.00
9249;BME280;4660;41.768;26.198;2023-04-07T23:39:04;101232.31;;;8.98;100.00
9249;BME280;4660;41.768;26.198;2023-04-07T23:41:29;101235.84;;;8.64;100.00
9249;BME280;4660;41.768;26.198;2023-04-07T23:43:55;101240.16;;;8.77;100.00
9249;BME280;4660;41.768;26.198;2023-04-07T23:46:21;101246.25;;;8.68;100.00
9249;BME280;4660;41.768;26.198;2023-04-07T23:48:47;101247.09;;;8.69;100.00
9249;BME280;4660;41.768;26.198;2023-04-07T23:51:13;101245.63;;;8.65;100.00
9249;BME280;4660;41.768;26.198;2023-04-07T23:53:38;101239.09;;;8.80;100.00
9249;BME280;4660;41.768;26.198;2023-04-07T23:56:04;101223.72;;;8.82;100.00
9249;BME280;4660;41.768;26.198;2023-04-07T23:58:30;101241.34;;;8.97;100.00
